Decoded Metar for EPLB ( in ) (IATA:) | Meteo·Mobile Aviation Weather
aviador You're here:

EPLB Decoded Metar

in
Report Time2019-11-14 10:30:00
UTC Time2019-11-14 10:53:40
Flight Rules mvfr MVFR
Wind280° at 07 kt
Visibility9999 m
Phenomena:N/A
Clouds:Few 009 Hf
Overcast 024 Hf
Expected CloudBase > 400 ft AGL from Temp-Dew spread
Ceiling2,400 ft
Temp08°C
Dew Point07°C (93% RH)
AAT4.8°C
QNH1013 hPa
Raw Report
EPLB 141030Z 28007KT 9999 FEW009 OVC024 08/07 Q1013=

Extra information for EPLB:More info

Social comments